createdAt,value
2019-04-25T00:01:27.475Z,2.90
2019-04-25T00:04:11.475Z,2.80
2019-04-25T00:06:44.752Z,2.75
2019-04-25T00:09:22.066Z,2.90
2019-04-25T00:11:52.297Z,2.60
2019-04-25T00:14:31.361Z,2.40
2019-04-25T00:17:01.707Z,2.20
2019-04-25T00:19:31.701Z,2.58
2019-04-25T00:22:18.398Z,2.15
2019-04-25T00:25:15.054Z,2.17
2019-04-25T00:27:37.549Z,2.20
2019-04-25T00:30:07.765Z,2.67
2019-04-25T00:32:36.230Z,2.50
2019-04-25T00:35:05.642Z,2.10
2019-04-25T00:37:34.254Z,2.83
2019-04-25T00:40:03.039Z,2.27
2019-04-25T00:42:32.005Z,2.37
2019-04-25T00:45:02.207Z,2.05
2019-04-25T00:47:31.541Z,2.80
2019-04-25T00:50:02.155Z,2.22
2019-04-25T00:52:31.352Z,2.50
2019-04-25T00:55:01.714Z,2.30
2019-04-25T00:57:32.035Z,2.77
2019-04-25T01:00:11.648Z,2.55
2019-04-25T01:02:42.357Z,2.40
2019-04-25T01:05:12.117Z,3.00
2019-04-25T01:07:42.110Z,2.87
2019-04-25T01:10:12.450Z,2.62
2019-04-25T01:12:41.718Z,2.20
2019-04-25T01:15:11.581Z,2.75
2019-04-25T01:17:41.341Z,2.37
2019-04-25T01:20:11.273Z,2.37
2019-04-25T01:22:39.737Z,2.33
2019-04-25T01:25:10.323Z,2.52
2019-04-25T01:27:39.213Z,2.42
2019-04-25T01:30:09.549Z,2.25
2019-04-25T01:32:38.959Z,2.70
2019-04-25T01:35:14.031Z,2.20
2019-04-25T01:37:51.103Z,2.52
2019-04-25T01:40:21.470Z,2.50
2019-04-25T01:42:54.763Z,2.45
2019-04-25T01:45:25.393Z,2.25
2019-04-25T01:47:55.159Z,2.22
2019-04-25T01:50:25.224Z,2.22
2019-04-25T01:52:55.324Z,2.02
2019-04-25T01:55:24.303Z,1.90
2019-04-25T01:57:54.773Z,2.12
2019-04-25T02:00:27.694Z,2.52
2019-04-25T02:02:56.763Z,2.30
2019-04-25T02:05:25.530Z,2.20
2019-04-25T02:07:55.003Z,2.27
2019-04-25T02:10:25.107Z,2.42
2019-04-25T02:13:02.476Z,2.70
2019-04-25T02:15:33.590Z,2.40
2019-04-25T02:18:03.802Z,2.42
2019-04-25T02:20:33.939Z,2.15
2019-04-25T02:23:04.170Z,2.20
2019-04-25T02:25:33.298Z,2.50
2019-04-25T02:28:03.145Z,2.15
2019-04-25T02:30:35.306Z,2.20
2019-04-25T02:33:08.942Z,1.80
2019-04-25T02:35:35.088Z,1.90
2019-04-25T02:38:08.350Z,2.17
2019-04-25T02:40:34.597Z,2.05
2019-04-25T02:43:07.679Z,1.87
2019-04-25T02:45:37.963Z,1.87
2019-04-25T02:48:08.865Z,1.85
2019-04-25T02:53:27.153Z,1.62
2019-04-25T02:55:56.857Z,1.70
2019-04-25T02:58:26.089Z,2.08
2019-04-25T03:01:03.436Z,1.77
2019-04-25T03:03:25.919Z,1.60
2019-04-25T03:05:55.004Z,1.80
2019-04-25T03:08:24.389Z,1.52
2019-04-25T03:10:54.381Z,1.70
2019-04-25T03:13:24.581Z,1.85
2019-04-25T03:15:55.755Z,1.62
2019-04-25T03:18:25.817Z,1.52
2019-04-25T03:20:59.736Z,1.55
2019-04-25T03:23:34.877Z,2.25
2019-04-25T03:26:05.822Z,1.87
2019-04-25T03:28:35.338Z,2.10
2019-04-25T03:31:10.708Z,1.90
2019-04-25T03:33:37.738Z,2.10
2019-04-25T03:36:06.558Z,2.22
2019-04-25T03:38:35.489Z,2.42
2019-04-25T03:41:04.871Z,2.15
2019-04-25T03:43:34.905Z,2.17
2019-04-25T03:46:05.014Z,2.40
2019-04-25T03:48:36.821Z,2.40
2019-04-25T03:51:06.792Z,2.83
2019-04-25T03:53:35.623Z,1.82
2019-04-25T03:56:06.034Z,1.90
2019-04-25T03:58:36.367Z,2.35
2019-04-25T04:01:07.981Z,1.90
2019-04-25T04:03:36.331Z,2.40
2019-04-25T04:06:08.310Z,2.20
2019-04-25T04:08:37.325Z,2.20
2019-04-25T04:11:07.413Z,2.22
2019-04-25T04:13:36.341Z,2.02
2019-04-25T04:16:05.677Z,2.00
2019-04-25T04:18:36.990Z,1.90
2019-04-25T04:21:23.722Z,1.70
2019-04-25T04:24:04.093Z,2.10
2019-04-25T04:26:33.239Z,2.05
2019-04-25T04:29:03.079Z,2.50
2019-04-25T04:31:33.575Z,1.90
2019-04-25T04:34:03.684Z,2.33
2019-04-25T04:36:33.845Z,2.12
2019-04-25T04:39:03.910Z,2.20
2019-04-25T04:41:33.887Z,1.73
2019-04-25T04:44:04.130Z,1.87
2019-04-25T04:46:34.026Z,1.92
2019-04-25T04:49:03.898Z,1.83
2019-04-25T04:51:33.620Z,2.15
2019-04-25T04:54:03.403Z,1.85
2019-04-25T04:56:34.092Z,2.08
2019-04-25T04:59:03.665Z,1.52
2019-04-25T05:01:34.197Z,2.30
2019-04-25T05:04:07.472Z,1.85
2019-04-25T05:06:37.718Z,2.15
2019-04-25T05:09:11.863Z,1.92
2019-04-25T05:11:41.223Z,2.05
2019-04-25T05:14:09.932Z,2.25
2019-04-25T05:16:38.623Z,1.82
2019-04-25T05:19:07.290Z,1.90
2019-04-25T05:21:35.963Z,2.08
2019-04-25T05:24:05.130Z,1.62
2019-04-25T05:26:34.128Z,2.55
2019-04-25T05:29:03.667Z,2.42
2019-04-25T05:31:34.222Z,2.37
2019-04-25T05:34:03.683Z,2.30
2019-04-25T05:36:38.253Z,2.35
2019-04-25T05:39:09.467Z,2.02
2019-04-25T05:41:46.155Z,2.30
2019-04-25T05:44:16.976Z,2.02
2019-04-25T05:49:21.919Z,2.72
2019-04-25T05:51:50.627Z,2.33
2019-04-25T05:54:19.384Z,2.35
2019-04-25T05:56:47.982Z,2.10
2019-04-25T05:59:17.903Z,2.70
2019-04-25T06:01:47.074Z,1.70
2019-04-25T06:04:15.806Z,2.50
2019-04-25T06:06:44.648Z,1.87
2019-04-25T06:09:20.542Z,2.17
2019-04-25T06:11:59.898Z,1.90
2019-04-25T06:14:28.441Z,2.35
2019-04-25T06:16:58.779Z,1.87
2019-04-25T06:19:32.523Z,2.20
2019-04-25T06:22:03.211Z,2.33
2019-04-25T06:24:34.304Z,2.35
2019-04-25T06:27:13.994Z,2.40
2019-04-25T06:29:43.663Z,2.27
2019-04-25T06:32:14.109Z,2.12
2019-04-25T06:34:44.211Z,2.05
2019-04-25T06:37:13.894Z,2.47
2019-04-25T06:39:44.208Z,2.52
2019-04-25T06:42:13.868Z,1.80
2019-04-25T06:44:56.547Z,2.25
2019-04-25T06:47:26.875Z,2.30
2019-04-25T06:49:55.498Z,2.42
2019-04-25T06:52:28.960Z,2.87
2019-04-25T06:54:54.558Z,2.45
2019-04-25T06:57:24.449Z,2.10
2019-04-25T06:59:53.519Z,2.15
2019-04-25T07:02:22.830Z,2.42
2019-04-25T07:04:54.025Z,2.10
2019-04-25T07:07:24.528Z,2.30
2019-04-25T07:09:53.549Z,2.70
2019-04-25T07:12:24.942Z,2.67
2019-04-25T07:14:53.917Z,1.90
2019-04-25T07:17:24.102Z,2.60
2019-04-25T07:19:54.157Z,2.37
2019-04-25T07:22:23.892Z,2.33
2019-04-25T07:24:53.774Z,2.25
2019-04-25T07:27:30.559Z,2.37
2019-04-25T07:30:01.105Z,2.92
2019-04-25T07:32:32.530Z,1.98
2019-04-25T07:35:03.635Z,2.37
2019-04-25T07:37:34.235Z,2.60
2019-04-25T07:40:04.136Z,2.25
2019-04-25T07:42:34.226Z,2.40
2019-04-25T07:45:04.858Z,2.70
2019-04-25T07:47:35.023Z,2.55
2019-04-25T07:50:07.246Z,2.47
2019-04-25T07:52:35.789Z,2.87
2019-04-25T07:55:05.899Z,2.37
2019-04-25T07:57:35.858Z,2.37
2019-04-25T08:00:14.217Z,2.80
2019-04-25T08:02:43.570Z,2.60
2019-04-25T08:05:14.767Z,2.62
2019-04-25T08:07:43.754Z,2.70
2019-04-25T08:10:14.078Z,2.30
2019-04-25T08:12:44.418Z,1.32
2019-04-25T08:15:28.598Z,1.15
2019-04-25T08:17:59.601Z,1.05
2019-04-25T08:20:29.273Z,1.00
2019-04-25T08:23:00.870Z,1.10
2019-04-25T08:25:30.741Z,1.25
2019-04-25T08:27:59.660Z,1.20
2019-04-25T08:30:29.775Z,1.10
2019-04-25T08:32:58.553Z,1.45
2019-04-25T08:35:27.244Z,1.25
2019-04-25T08:37:55.935Z,1.32
2019-04-25T08:40:24.766Z,1.57
2019-04-25T08:42:53.765Z,1.70
2019-04-25T08:45:24.486Z,2.12
2019-04-25T08:47:53.787Z,2.87
2019-04-25T08:50:28.922Z,3.42
2019-04-25T08:52:55.002Z,2.22
2019-04-25T08:55:45.684Z,1.85
2019-04-25T08:58:16.179Z,1.57
2019-04-25T09:01:00.962Z,1.20
2019-04-25T09:03:30.132Z,1.07
2019-04-25T09:05:59.005Z,1.00
2019-04-25T09:08:27.948Z,0.90
2019-04-25T09:10:56.919Z,0.88
2019-04-25T09:13:25.493Z,1.75
2019-04-25T09:15:54.173Z,0.85
2019-04-25T09:18:24.063Z,0.78
2019-04-25T09:20:53.955Z,1.10
2019-04-25T09:23:23.584Z,0.90
2019-04-25T09:25:54.322Z,1.02
2019-04-25T09:28:23.825Z,1.00
2019-04-25T09:30:53.995Z,1.27
2019-04-25T09:33:23.268Z,0.88
2019-04-25T09:35:53.663Z,1.15
2019-04-25T09:38:24.326Z,1.02
2019-04-25T09:40:54.159Z,1.00
2019-04-25T09:43:23.521Z,0.75
2019-04-25T09:46:03.256Z,1.30
2019-04-25T09:48:46.711Z,1.15
2019-04-25T09:51:20.002Z,1.12
2019-04-25T09:53:54.493Z,1.55
2019-04-25T09:56:27.282Z,1.30
2019-04-25T09:58:57.644Z,1.30
2019-04-25T10:01:27.482Z,1.17
2019-04-25T10:03:56.031Z,1.05
2019-04-25T10:06:25.226Z,1.02
2019-04-25T10:08:54.342Z,1.00
2019-04-25T10:11:23.749Z,0.98
2019-04-25T10:14:05.086Z,1.22
2019-04-25T10:16:35.041Z,1.00
2019-04-25T10:19:04.246Z,1.00
2019-04-25T10:21:34.282Z,0.98
2019-04-25T10:24:03.612Z,1.22
2019-04-25T10:26:34.773Z,1.10
2019-04-25T10:29:03.034Z,1.40
2019-04-25T10:31:31.794Z,1.00
2019-04-25T10:34:00.518Z,0.70
2019-04-25T10:36:29.173Z,1.10
2019-04-25T10:39:07.671Z,1.20
2019-04-25T10:43:56.471Z,1.30
2019-04-25T10:46:25.175Z,1.20
2019-04-25T10:48:55.941Z,0.88
2019-04-25T10:51:24.176Z,1.10
2019-04-25T10:53:53.911Z,1.00
2019-04-25T10:56:24.300Z,1.02
2019-04-25T10:58:54.826Z,1.10
2019-04-25T11:01:24.454Z,1.02
2019-04-25T11:03:55.728Z,1.00
2019-04-25T11:06:26.544Z,1.15
2019-04-25T11:08:56.489Z,0.90
2019-04-25T11:11:25.903Z,1.12
2019-04-25T11:13:56.934Z,1.07
2019-04-25T11:16:26.238Z,0.95
2019-04-25T11:18:55.286Z,1.05
2019-04-25T11:21:24.354Z,1.02
2019-04-25T11:23:55.121Z,1.20
2019-04-25T11:26:24.202Z,1.10
2019-04-25T11:28:52.945Z,0.90
2019-04-25T11:31:23.636Z,1.00
2019-04-25T11:33:54.287Z,1.30
2019-04-25T11:36:24.814Z,1.20
2019-04-25T11:39:11.194Z,1.20
2019-04-25T11:41:39.683Z,1.00
2019-04-25T11:44:08.403Z,1.70
2019-04-25T11:46:39.263Z,1.02
2019-04-25T11:49:07.410Z,1.17
2019-04-25T11:51:36.142Z,1.00
2019-04-25T11:54:05.533Z,1.25
2019-04-25T11:56:34.407Z,1.20
2019-04-25T11:59:13.781Z,0.98
2019-04-25T12:01:45.333Z,1.35
2019-04-25T12:04:15.839Z,1.55
2019-04-25T12:06:47.051Z,1.50
2019-04-25T12:09:15.098Z,1.10
2019-04-25T12:11:46.536Z,1.17
2019-04-25T12:14:14.912Z,1.10
2019-04-25T12:16:48.443Z,1.30
2019-04-25T12:19:15.486Z,1.10
2019-04-25T12:21:44.675Z,1.40
2019-04-25T12:24:13.838Z,1.25
2019-04-25T12:26:45.270Z,1.47
2019-04-25T12:29:14.375Z,1.35
2019-04-25T12:31:45.302Z,1.25
2019-04-25T12:34:14.197Z,1.20
2019-04-25T12:36:44.339Z,1.25
2019-04-25T12:39:14.406Z,1.05
2019-04-25T12:41:44.144Z,1.40
2019-04-25T12:44:31.572Z,1.35
2019-04-25T12:47:03.278Z,1.37
2019-04-25T12:49:32.014Z,1.00
2019-04-25T12:52:00.737Z,1.30
2019-04-25T12:54:29.398Z,1.47
2019-04-25T12:56:58.070Z,1.50
2019-04-25T12:59:26.546Z,1.75
2019-04-25T13:01:55.899Z,1.30
2019-04-25T13:04:24.596Z,1.60
2019-04-25T13:06:54.467Z,1.52
2019-04-25T13:09:23.153Z,1.30
2019-04-25T13:11:53.446Z,1.32
2019-04-25T13:14:22.984Z,1.72
2019-04-25T13:16:51.862Z,1.95
2019-04-25T13:19:24.224Z,1.15
2019-04-25T13:21:50.731Z,1.80
2019-04-25T13:24:19.367Z,1.60
2019-04-25T13:26:49.685Z,1.52
2019-04-25T13:29:29.854Z,1.98
2019-04-25T13:32:04.950Z,1.40
2019-04-25T13:34:37.536Z,1.40
2019-04-25T13:37:06.690Z,1.65
2019-04-25T13:39:35.239Z,1.27
2019-04-25T13:42:05.540Z,1.20
2019-04-25T13:47:04.090Z,1.22
2019-04-25T13:49:32.823Z,1.50
2019-04-25T13:52:01.519Z,1.52
2019-04-25T13:54:31.350Z,1.25
2019-04-25T13:57:00.208Z,1.47
2019-04-25T13:59:28.691Z,1.15
2019-04-25T14:01:58.791Z,1.52
2019-04-25T14:04:36.379Z,1.20
2019-04-25T14:07:05.767Z,1.30
2019-04-25T14:09:35.778Z,1.60
2019-04-25T14:12:05.654Z,1.20
2019-04-25T14:14:36.053Z,2.20
2019-04-25T14:17:07.167Z,1.45
2019-04-25T14:19:37.668Z,1.30
2019-04-25T14:22:06.614Z,1.40
2019-04-25T14:24:35.877Z,1.07
2019-04-25T14:27:04.551Z,1.25
2019-04-25T14:29:33.266Z,1.27
2019-04-25T14:32:03.278Z,1.30
2019-04-25T14:34:33.716Z,1.67
2019-04-25T14:37:02.711Z,1.20
2019-04-25T14:39:31.212Z,1.42
2019-04-25T14:41:59.971Z,1.55
2019-04-25T14:44:28.649Z,1.35
2019-04-25T14:46:57.298Z,1.50
2019-04-25T14:49:26.317Z,1.50
2019-04-25T14:51:55.066Z,1.22
2019-04-25T14:54:31.174Z,0.90
2019-04-25T14:57:04.244Z,1.55
2019-04-25T14:59:33.829Z,1.40
2019-04-25T15:02:02.584Z,1.60
2019-04-25T15:04:31.183Z,1.27
2019-04-25T15:06:59.890Z,1.20
2019-04-25T15:09:28.873Z,1.92
2019-04-25T15:11:57.723Z,1.50
2019-04-25T15:14:26.918Z,1.75
2019-04-25T15:16:55.870Z,1.62
2019-04-25T15:19:25.398Z,1.40
2019-04-25T15:21:54.138Z,1.57
2019-04-25T15:24:23.005Z,1.20
2019-04-25T15:26:52.646Z,1.10
2019-04-25T15:29:21.382Z,1.50
2019-04-25T15:31:56.190Z,1.30
2019-04-25T15:34:22.702Z,1.57
2019-04-25T15:36:53.108Z,1.22
2019-04-25T15:39:42.598Z,1.30
2019-04-25T15:42:26.180Z,1.80
2019-04-25T15:45:02.466Z,1.45
2019-04-25T15:47:32.817Z,2.00
2019-04-25T15:50:01.759Z,1.40
2019-04-25T15:52:31.047Z,1.52
2019-04-25T15:55:06.877Z,1.60
2019-04-25T15:57:30.207Z,1.47
2019-04-25T15:59:58.922Z,1.20
2019-04-25T16:02:28.792Z,1.20
2019-04-25T16:04:57.509Z,1.40
2019-04-25T16:07:27.168Z,0.85
2019-04-25T16:09:58.182Z,1.00
2019-04-25T16:14:56.356Z,1.10
2019-04-25T16:17:25.111Z,1.15
2019-04-25T16:19:53.730Z,1.10
2019-04-25T16:22:22.479Z,1.00
2019-04-25T16:24:51.095Z,1.20
2019-04-25T16:27:20.046Z,0.90
2019-04-25T16:29:48.883Z,1.00
2019-04-25T16:32:20.891Z,0.90
2019-04-25T16:34:49.723Z,0.88
2019-04-25T16:37:18.821Z,1.00
2019-04-25T16:39:48.033Z,1.02
2019-04-25T16:42:16.798Z,0.88
2019-04-25T16:44:45.583Z,1.22
2019-04-25T16:49:16.338Z,1.20
2019-04-25T16:51:47.130Z,1.32
2019-04-25T16:54:17.287Z,1.20
2019-04-25T16:56:47.239Z,1.00
2019-04-25T16:59:17.304Z,1.32
2019-04-25T17:01:47.380Z,1.00
2019-04-25T17:04:19.854Z,0.90
2019-04-25T17:06:49.001Z,0.70
2019-04-25T17:09:19.364Z,0.82
2019-04-25T17:11:49.158Z,0.80
2019-04-25T17:14:20.758Z,1.10
2019-04-25T17:16:58.230Z,1.30
2019-04-25T17:19:38.994Z,1.00
2019-04-25T17:22:09.489Z,0.80
2019-04-25T17:24:39.318Z,1.02
2019-04-25T17:27:09.630Z,1.42
2019-04-25T17:29:40.106Z,1.05
2019-04-25T17:32:11.824Z,1.20
2019-04-25T17:34:52.059Z,1.25
2019-04-25T17:37:26.078Z,1.07
2019-04-25T17:39:57.531Z,1.40
2019-04-25T17:42:28.276Z,1.10
2019-04-25T17:44:57.808Z,1.30
2019-04-25T17:47:27.706Z,1.60
2019-04-25T17:49:57.222Z,1.70
2019-04-25T17:52:27.017Z,1.30
2019-04-25T17:55:01.307Z,1.32
2019-04-25T17:57:31.030Z,1.10
2019-04-25T18:00:00.595Z,1.00
2019-04-25T18:02:30.532Z,1.17
2019-04-25T18:05:01.186Z,1.50
2019-04-25T18:07:30.787Z,1.75
2019-04-25T18:10:00.751Z,1.00
2019-04-25T18:12:30.694Z,1.60
2019-04-25T18:15:02.183Z,2.60
2019-04-25T18:17:32.108Z,2.02
2019-04-25T18:20:03.275Z,1.15
2019-04-25T18:22:50.607Z,1.20
2019-04-25T18:25:24.470Z,1.27
2019-04-25T18:27:58.490Z,1.50
2019-04-25T18:30:28.151Z,1.95
2019-04-25T18:33:10.315Z,1.82
2019-04-25T18:35:40.295Z,1.60
2019-04-25T18:38:12.028Z,1.70
2019-04-25T18:40:44.812Z,1.50
2019-04-25T18:43:21.466Z,1.45
2019-04-25T18:45:52.755Z,2.20
2019-04-25T18:48:22.704Z,1.60
2019-04-25T18:50:52.675Z,1.63
2019-04-25T18:53:24.426Z,1.42
2019-04-25T18:56:04.331Z,1.32
2019-04-25T18:58:35.522Z,1.30
2019-04-25T19:01:12.994Z,1.50
2019-04-25T19:03:50.462Z,1.72
2019-04-25T19:06:24.477Z,1.80
2019-04-25T19:08:54.401Z,1.70
2019-04-25T19:11:24.389Z,1.22
2019-04-25T19:13:54.353Z,1.50
2019-04-25T19:16:24.166Z,1.50
2019-04-25T19:18:54.059Z,1.72
2019-04-25T19:21:24.074Z,1.42
2019-04-25T19:23:53.899Z,1.63
2019-04-25T19:26:23.820Z,1.27
2019-04-25T19:28:53.816Z,3.40
2019-04-25T19:31:23.574Z,2.17
2019-04-25T19:33:53.099Z,1.92
2019-04-25T19:36:22.627Z,1.52
2019-04-25T19:38:52.565Z,1.47
2019-04-25T19:41:24.059Z,1.60
2019-04-25T19:43:55.215Z,1.70
2019-04-25T19:46:26.778Z,1.50
2019-04-25T19:48:56.654Z,1.52
2019-04-25T19:51:26.553Z,1.60
2019-04-25T19:53:56.482Z,2.10
2019-04-25T19:56:26.010Z,1.77
2019-04-25T19:58:55.526Z,1.90
2019-04-25T20:01:25.432Z,2.40
2019-04-25T20:04:06.411Z,2.27
2019-04-25T20:09:25.033Z,1.60
2019-04-25T20:11:56.052Z,2.00
2019-04-25T20:14:25.715Z,1.80
2019-04-25T20:16:55.318Z,2.60
2019-04-25T20:19:25.246Z,2.12
2019-04-25T20:21:55.147Z,2.55
2019-04-25T20:24:26.775Z,1.70
2019-04-25T20:26:56.675Z,1.70
2019-04-25T20:29:26.544Z,1.77
2019-04-25T20:31:56.466Z,1.98
2019-04-25T20:34:26.361Z,2.08
2019-04-25T20:36:56.317Z,2.15
2019-04-25T20:39:27.773Z,1.90
2019-04-25T20:41:57.762Z,2.42
2019-04-25T20:44:27.662Z,2.92
2019-04-25T20:46:57.883Z,2.45
2019-04-25T20:49:27.913Z,2.62
2019-04-25T20:51:57.788Z,1.90
2019-04-25T20:54:27.778Z,2.33
2019-04-25T20:56:57.642Z,1.82
2019-04-25T20:59:27.545Z,2.00
2019-04-25T21:01:57.722Z,2.30
2019-04-25T21:04:40.855Z,2.27
2019-04-25T21:07:11.009Z,2.33
2019-04-25T21:09:40.945Z,2.17
2019-04-25T21:12:10.641Z,2.80
2019-04-25T21:14:51.419Z,2.52
2019-04-25T21:17:28.184Z,2.58
2019-04-25T21:20:02.948Z,2.40
2019-04-25T21:22:33.185Z,2.10
2019-04-25T21:25:05.605Z,1.90
2019-04-25T21:27:35.117Z,1.98
2019-04-25T21:30:07.807Z,1.75
2019-04-25T21:32:56.094Z,1.70
2019-04-25T21:35:28.257Z,1.57
2019-04-25T21:40:34.944Z,1.70
2019-04-25T21:43:15.562Z,1.65
2019-04-25T21:45:45.583Z,1.72
2019-04-25T21:48:15.368Z,1.80
2019-04-25T21:50:45.378Z,1.85
2019-04-25T21:53:15.210Z,1.70
2019-04-25T21:55:45.134Z,2.17
2019-04-25T21:58:15.018Z,1.77
2019-04-25T22:00:46.798Z,1.73
2019-04-25T22:03:18.621Z,1.85
2019-04-25T22:05:48.490Z,2.15
2019-04-25T22:08:18.015Z,1.80
2019-04-25T22:10:47.746Z,1.90
2019-04-25T22:13:17.779Z,1.95
2019-04-25T22:15:48.816Z,1.85
2019-04-25T22:18:18.971Z,2.15
2019-04-25T22:20:48.877Z,1.90
2019-04-25T22:23:18.809Z,1.80
2019-04-25T22:25:49.143Z,1.77
2019-04-25T22:28:19.014Z,2.12
2019-04-25T22:30:51.915Z,1.67
2019-04-25T22:33:26.135Z,1.70
2019-04-25T22:36:04.012Z,1.90
2019-04-25T22:38:33.885Z,2.80
2019-04-25T22:41:03.824Z,1.90
2019-04-25T22:43:35.719Z,2.30
2019-04-25T22:46:05.976Z,2.30
2019-04-25T22:48:47.953Z,2.75
2019-04-25T22:51:18.099Z,2.40
2019-04-25T22:53:48.551Z,1.95
2019-04-25T22:56:18.461Z,2.58
2019-04-25T22:58:48.323Z,2.83
2019-04-25T23:01:26.858Z,2.83
2019-04-25T23:03:58.019Z,2.40
2019-04-25T23:06:28.095Z,2.35
2019-04-25T23:08:57.802Z,2.50
2019-04-25T23:11:27.714Z,2.60
2019-04-25T23:13:58.046Z,2.83
2019-04-25T23:16:27.931Z,2.87
2019-04-25T23:18:57.467Z,3.22
2019-04-25T23:21:27.364Z,3.02
2019-04-25T23:23:56.903Z,3.17
2019-04-25T23:26:28.439Z,2.75
2019-04-25T23:29:03.956Z,3.27
2019-04-25T23:31:35.634Z,3.12
2019-04-25T23:34:06.005Z,2.60
2019-04-25T23:36:36.686Z,3.17
2019-04-25T23:39:09.378Z,2.35
2019-04-25T23:41:39.394Z,2.92
2019-04-25T23:44:09.086Z,3.10
2019-04-25T23:49:09.207Z,2.75
2019-04-25T23:51:39.038Z,2.67
2019-04-25T23:54:08.920Z,2.75
2019-04-25T23:56:38.869Z,2.73
2019-04-25T23:59:09.830Z,2.50
